Algoma, WI (54201)

6:13 PM CST on December 10, 2016 (GMT -0600)
East Carnot, Wi | | Change Station
Active Advisory: Winter Weather Advisory

Elev 682 ft 44.71 °N, 87.39 °W | Updated 45 seconds ago

Partly Cloudy
Partly Cloudy
13.5 °F
Feels Like 14 °F
N
2.0
Wind Variable Wind from WSW

Today
High -- | Low -- °F
--% Chance of Precip.
Yesterday
High -- | Low -- °F
Precip. -- in
Pressure 30.44 in
Visibility 10.0 miles
Clouds Clear
Windchill 14 °F
Dew Point 9 °F
Humidity 85%
Rainfall 0.00 in
Snow Depth Not available.
7:16 AM 4:09 PM
Waxing Gibbous, 87% visible
METAR KSUE 102356Z AUTO 23005KT 10SM CLR M09/M14 A3036 RMK AO2 SLP306 6//// T10941139 11072 21100 58002 FZRANO
Pressure 30.44 in
Visibility 10.0 miles
Clouds Clear
Windchill 14 °F
Dew Point 9 °F
Humidity 85%
Rainfall 0.00 in
Snow Depth Not available.
7:16 AM 4:09 PM
Waxing Gibbous, 87% visible
METAR KSUE 102356Z AUTO 23005KT 10SM CLR M09/M14 A3036 RMK AO2 SLP306 6//// T10941139 11072 21100 58002 FZRANO

10-Day Weather Forecast

Almanac

Astronomy

Dec. 10, 2016 Rise Set
Actual Time
Civil Twilight
Nautical Twilight
Astronomical Twilight
Moon
Length of Visible Light
Length of Day
Tomorrow will be .
, % of the Moon is Illuminated

Today's Extremes

State Highs State Lows

Community

WunderPhotos

Upload Photos

1,956,680 photos uploaded!

WunderBlog® & News

Nearby

Air Quality

  Air Quality AQ Index Pollutant
Not available.

Snow Depth

Station Depth Elevation

Earthquake Activity

City Distance Mag. Time & Date
Minimum magnitude displayed is 2.5.

Coastal Water Temperatures

Place Temperature

Stations

Nearby Weather Stations

Station Location Temp. Windchill Dew Point Humidity Wind Precip. Elev Updated Type
                   

Watches & Warnings

Winter Weather Advisory
Issued: 2:26 PM CST Dec. 10, 2016 – National Weather Service

... Winter Weather Advisory in effect from 9 PM this evening to
midnight CST Sunday night...

The National Weather Service in Green Bay has issued a Winter
Weather Advisory for snow... which is in effect from 9 PM this
evening to midnight CST Sunday night. The Winter Storm Watch is no
longer in effect.

* Expect snow to develop around 9 PM and then diminish around
midnight Sunday night.

* The heaviest snowfall rates will occur between 6 am and noon
Sunday.

* Snow accumulations of 5 to 8 inches are expected.

* Hazardous travel conditions will develop tonight and continue
through Sunday evening.

Precautionary/preparedness actions...

A Winter Weather Advisory for snow means periods of snow will
cause primarily travel difficulties. Be prepared for snow covered
roads and limited visibilities... and use extra caution while
driving. The latest Wisconsin Road conditions can be obtained by
calling 511.